createdAt,value
2022-09-22T00:01:11.372Z,8.35
2022-09-22T00:03:44.135Z,8.32
2022-09-22T00:06:19.534Z,8.34
2022-09-22T00:08:49.107Z,8.16
2022-09-22T00:11:21.989Z,8.33
2022-09-22T00:13:54.843Z,8.30
2022-09-22T00:16:27.889Z,8.42
2022-09-22T00:18:54.611Z,8.37
2022-09-22T00:21:23.045Z,8.59
2022-09-22T00:23:50.034Z,8.67
2022-09-22T00:26:19.093Z,8.61
2022-09-22T00:28:47.369Z,8.55
2022-09-22T00:31:23.442Z,8.77
2022-09-22T00:33:51.311Z,8.66
2022-09-22T00:36:20.645Z,8.79
2022-09-22T00:38:47.686Z,8.65
2022-09-22T00:41:18.353Z,8.55
2022-09-22T00:43:48.787Z,8.57
2022-09-22T00:46:21.405Z,8.66
2022-09-22T00:49:03.810Z,8.61
2022-09-22T00:51:35.266Z,8.60
2022-09-22T00:54:06.093Z,8.65
2022-09-22T00:57:06.114Z,8.59
2022-09-22T00:59:33.298Z,8.63
2022-09-22T01:01:59.983Z,8.79
2022-09-22T01:04:26.950Z,8.89
2022-09-22T01:06:55.336Z,8.83
2022-09-22T01:09:23.166Z,8.85
2022-09-22T01:11:49.798Z,8.75
2022-09-22T01:14:36.907Z,8.86
2022-09-22T01:17:29.636Z,9.01
2022-09-22T01:20:23.511Z,8.83
2022-09-22T01:23:08.470Z,8.72
2022-09-22T01:25:56.802Z,8.83
2022-09-22T01:28:44.328Z,8.77
2022-09-22T01:31:31.494Z,8.86
2022-09-22T01:34:05.772Z,8.64
2022-09-22T01:36:58.179Z,8.54
2022-09-22T01:39:26.843Z,8.65
2022-09-22T01:42:17.403Z,8.56
2022-09-22T01:45:14.239Z,8.13
2022-09-22T01:47:45.923Z,8.21
2022-09-22T01:50:34.210Z,8.40
2022-09-22T01:53:05.815Z,8.38
2022-09-22T01:55:41.223Z,8.21
2022-09-22T01:58:15.678Z,8.22
2022-09-22T02:00:48.843Z,8.26
2022-09-22T02:03:24.560Z,8.17
2022-09-22T02:05:57.779Z,8.10
2022-09-22T02:08:37.862Z,7.95
2022-09-22T02:11:11.063Z,7.85
2022-09-22T02:13:37.939Z,7.91
2022-09-22T02:16:06.142Z,7.87
2022-09-22T02:18:56.124Z,7.98
2022-09-22T02:21:25.906Z,8.02
2022-09-22T02:23:52.532Z,7.95
2022-09-22T02:26:26.111Z,8.01
2022-09-22T02:29:00.745Z,8.11
2022-09-22T02:31:29.984Z,8.03
2022-09-22T02:33:57.412Z,8.09
2022-09-22T02:37:02.459Z,7.85
2022-09-22T02:39:54.751Z,7.80
2022-09-22T02:42:40.984Z,7.90
2022-09-22T02:45:21.377Z,7.45
2022-09-22T02:48:15.430Z,7.25
2022-09-22T02:50:42.878Z,7.06
2022-09-22T02:53:16.739Z,7.29
2022-09-22T02:55:44.883Z,7.17
2022-09-22T02:58:14.602Z,7.30
2022-09-22T03:00:41.285Z,7.19
2022-09-22T03:03:07.867Z,7.18
2022-09-22T03:05:34.430Z,7.29
2022-09-22T03:08:01.270Z,7.31
2022-09-22T03:10:27.871Z,7.39
2022-09-22T03:13:14.843Z,7.40
2022-09-22T03:15:41.380Z,7.36
2022-09-22T03:18:07.975Z,7.30
2022-09-22T03:20:34.619Z,7.20
2022-09-22T03:23:01.190Z,7.18
2022-09-22T03:25:27.749Z,7.08
2022-09-22T03:27:54.320Z,7.01
2022-09-22T03:30:20.911Z,7.02
2022-09-22T03:32:47.528Z,7.07
2022-09-22T03:35:14.223Z,7.30
2022-09-22T03:37:40.897Z,7.25
2022-09-22T03:40:07.939Z,7.40
2022-09-22T03:42:35.310Z,7.33
2022-09-22T03:45:02.050Z,7.45
2022-09-22T03:47:28.621Z,7.50
2022-09-22T03:49:55.285Z,7.67
2022-09-22T03:52:22.083Z,7.60
2022-09-22T03:54:48.660Z,7.66
2022-09-22T03:57:15.350Z,7.57
2022-09-22T03:59:42.011Z,7.56
2022-09-22T04:02:08.627Z,7.55
2022-09-22T04:04:35.190Z,7.26
2022-09-22T04:07:06.842Z,7.08
2022-09-22T04:09:34.906Z,6.95
2022-09-22T04:12:01.915Z,7.04
2022-09-22T04:14:28.491Z,7.13
2022-09-22T04:16:55.132Z,6.98
2022-09-22T04:19:21.826Z,6.95
2022-09-22T04:21:50.145Z,7.01
2022-09-22T04:24:19.940Z,7.18
2022-09-22T04:27:08.237Z,6.95
2022-09-22T04:29:33.125Z,7.02
2022-09-22T04:31:59.695Z,7.16
2022-09-22T04:34:26.284Z,7.38
2022-09-22T04:36:52.874Z,7.44
2022-09-22T04:39:23.641Z,7.34
2022-09-22T04:41:50.691Z,7.43
2022-09-22T04:44:17.268Z,7.29
2022-09-22T04:46:43.870Z,6.65
2022-09-22T04:49:10.424Z,6.52
2022-09-22T04:51:36.996Z,6.79
2022-09-22T04:54:03.754Z,6.70
2022-09-22T04:56:30.329Z,6.48
2022-09-22T04:58:56.918Z,6.68
2022-09-22T05:01:23.603Z,6.80
2022-09-22T05:03:52.838Z,7.10
2022-09-22T05:06:19.630Z,6.82
2022-09-22T05:08:46.207Z,6.84
2022-09-22T05:11:12.783Z,6.97
2022-09-22T05:13:39.451Z,7.06
2022-09-22T05:16:06.209Z,7.06
2022-09-22T05:18:32.808Z,7.18
2022-09-22T05:20:59.758Z,7.13
2022-09-22T05:23:26.373Z,7.04
2022-09-22T05:25:52.938Z,7.17
2022-09-22T05:28:19.560Z,7.18
2022-09-22T05:30:49.767Z,6.99
2022-09-22T05:33:16.540Z,6.84
2022-09-22T05:35:43.104Z,6.77
2022-09-22T05:38:09.784Z,6.94
2022-09-22T05:40:36.429Z,7.02
2022-09-22T05:43:03.099Z,7.01
2022-09-22T05:45:29.743Z,6.81
2022-09-22T05:47:56.365Z,6.77
2022-09-22T05:50:22.969Z,6.89
2022-09-22T05:52:50.465Z,7.39
2022-09-22T05:55:17.100Z,7.18
2022-09-22T05:57:43.681Z,7.48
2022-09-22T06:00:11.009Z,7.49
2022-09-22T06:02:37.643Z,7.76
2022-09-22T06:05:04.527Z,7.54
2022-09-22T06:07:31.113Z,7.31
2022-09-22T06:09:57.674Z,7.38
2022-09-22T06:12:24.390Z,7.72
2022-09-22T06:14:50.943Z,7.89
2022-09-22T06:17:17.558Z,7.66
2022-09-22T06:19:44.191Z,7.61
2022-09-22T06:22:10.759Z,7.52
2022-09-22T06:24:37.414Z,7.59
2022-09-22T06:27:04.334Z,7.61
2022-09-22T06:29:30.909Z,7.66
2022-09-22T06:31:57.578Z,7.77
2022-09-22T06:34:24.353Z,7.94
2022-09-22T06:36:50.965Z,8.05
2022-09-22T06:39:17.549Z,8.03
2022-09-22T06:41:44.193Z,8.17
2022-09-22T06:44:10.937Z,8.33
2022-09-22T06:46:37.527Z,8.46
2022-09-22T06:49:04.067Z,8.45
2022-09-22T06:51:33.130Z,8.49
2022-09-22T06:54:01.573Z,8.51
2022-09-22T06:56:28.194Z,8.60
2022-09-22T06:59:09.436Z,8.75
2022-09-22T07:01:37.424Z,8.67
2022-09-22T07:04:04.182Z,8.73
2022-09-22T07:06:30.869Z,8.83
2022-09-22T07:08:57.488Z,9.04
2022-09-22T07:11:24.094Z,8.99
2022-09-22T07:13:53.220Z,9.13
2022-09-22T07:16:22.547Z,9.31
2022-09-22T07:18:51.725Z,9.44
2022-09-22T07:21:23.801Z,9.34
2022-09-22T07:23:53.464Z,9.69
2022-09-22T07:26:26.398Z,9.67
2022-09-22T07:28:54.224Z,9.68
2022-09-22T07:31:25.011Z,9.80
2022-09-22T07:33:54.570Z,9.76
2022-09-22T07:36:23.707Z,9.82
2022-09-22T07:38:53.051Z,9.87
2022-09-22T07:41:23.242Z,10.02
2022-09-22T07:43:52.551Z,10.02
2022-09-22T07:46:20.021Z,10.26
2022-09-22T07:48:46.638Z,10.50
2022-09-22T07:51:16.680Z,10.35
2022-09-22T07:53:44.500Z,10.37
2022-09-22T07:56:13.354Z,10.35
2022-09-22T07:58:52.728Z,10.41
2022-09-22T08:01:24.600Z,10.66
2022-09-22T08:03:51.271Z,10.74
2022-09-22T08:06:20.127Z,11.40
2022-09-22T08:08:49.059Z,11.56
2022-09-22T08:11:17.820Z,11.35
2022-09-22T08:13:50.426Z,11.52
2022-09-22T08:16:17.106Z,11.64
2022-09-22T08:18:44.602Z,11.32
2022-09-22T08:21:11.171Z,11.04
2022-09-22T08:23:37.733Z,11.32
2022-09-22T08:26:08.573Z,11.26
2022-09-22T08:28:35.665Z,11.52
2022-09-22T08:31:03.081Z,11.95
2022-09-22T08:33:31.133Z,11.99
2022-09-22T08:35:59.736Z,12.02
2022-09-22T08:38:26.310Z,11.80
2022-09-22T08:41:25.228Z,12.65
2022-09-22T08:43:54.431Z,12.57
2022-09-22T08:46:53.493Z,12.54
2022-09-22T08:49:45.940Z,12.18
2022-09-22T08:52:18.422Z,12.69
2022-09-22T08:54:45.725Z,12.67
2022-09-22T08:57:21.431Z,12.98
2022-09-22T09:00:00.074Z,13.75
2022-09-22T09:02:43.257Z,13.75
2022-09-22T09:05:28.168Z,13.69
2022-09-22T09:07:57.379Z,13.18
2022-09-22T09:10:45.359Z,13.48
2022-09-22T09:13:24.081Z,13.64
2022-09-22T09:16:12.483Z,13.48
2022-09-22T09:18:44.946Z,13.76
2022-09-22T09:21:14.982Z,13.49
2022-09-22T09:26:34.622Z,14.01
2022-09-22T09:29:05.542Z,14.06
2022-09-22T09:31:37.726Z,14.45
2022-09-22T09:34:07.931Z,14.23
2022-09-22T09:36:43.022Z,14.64
2022-09-22T09:39:30.850Z,14.56
2022-09-22T09:41:59.059Z,13.90
2022-09-22T09:44:35.867Z,14.37
2022-09-22T09:47:24.410Z,14.48
2022-09-22T09:49:52.992Z,14.64
2022-09-22T09:52:19.946Z,14.80
2022-09-22T09:54:47.105Z,14.63
2022-09-22T09:57:16.855Z,14.74
2022-09-22T10:00:15.489Z,15.23
2022-09-22T10:02:51.057Z,15.22
2022-09-22T10:05:17.657Z,15.25
2022-09-22T10:07:47.230Z,15.22
2022-09-22T10:10:30.824Z,15.42
2022-09-22T10:13:00.321Z,15.35
2022-09-22T10:15:27.193Z,14.77
2022-09-22T10:17:53.821Z,14.92
2022-09-22T10:20:31.783Z,14.99
2022-09-22T10:23:23.330Z,15.38
2022-09-22T10:25:50.103Z,15.45
2022-09-22T10:28:21.556Z,15.79
2022-09-22T10:31:01.761Z,15.24
2022-09-22T10:33:28.498Z,15.01
2022-09-22T10:35:56.254Z,14.93
2022-09-22T10:38:24.794Z,14.62
2022-09-22T10:41:03.819Z,14.65
2022-09-22T10:43:56.247Z,14.34
2022-09-22T10:46:28.665Z,14.72
2022-09-22T10:49:39.994Z,14.36
2022-09-22T10:52:09.224Z,14.31
2022-09-22T10:54:53.945Z,13.94
2022-09-22T10:58:04.848Z,14.49
2022-09-22T11:00:41.725Z,14.69
2022-09-22T11:03:23.160Z,14.92
2022-09-22T11:05:58.512Z,15.31
2022-09-22T11:08:25.087Z,15.29
2022-09-22T11:11:03.548Z,15.34
2022-09-22T11:13:47.853Z,15.17
2022-09-22T11:16:34.619Z,15.26
2022-09-22T11:19:01.442Z,15.41
2022-09-22T11:21:53.453Z,15.05
2022-09-22T11:24:31.918Z,15.24
2022-09-22T11:27:01.204Z,15.31
2022-09-22T11:29:46.063Z,15.14
2022-09-22T11:32:24.439Z,15.33
2022-09-22T11:35:18.636Z,15.53
2022-09-22T11:37:50.955Z,15.06
2022-09-22T11:40:27.343Z,14.69
2022-09-22T11:43:33.007Z,14.78
2022-09-22T11:46:07.583Z,14.84
2022-09-22T11:48:55.154Z,14.92
2022-09-22T11:51:27.782Z,14.96
2022-09-22T11:54:21.731Z,15.20
2022-09-22T11:57:06.293Z,15.37
2022-09-22T11:59:52.592Z,15.26
2022-09-22T12:02:46.109Z,15.20
2022-09-22T12:05:21.243Z,15.09
2022-09-22T12:08:18.443Z,14.68
2022-09-22T12:10:45.514Z,14.94
2022-09-22T12:13:19.982Z,14.86
2022-09-22T12:15:58.781Z,15.13
2022-09-22T12:18:47.425Z,14.98
2022-09-22T12:21:41.335Z,15.23
2022-09-22T12:24:10.085Z,15.52
2022-09-22T12:26:39.395Z,15.37
2022-09-22T12:29:28.047Z,14.78
2022-09-22T12:31:57.668Z,15.13
2022-09-22T12:34:24.215Z,15.53
2022-09-22T12:36:55.026Z,15.67
2022-09-22T12:39:30.125Z,15.32
2022-09-22T12:42:06.521Z,15.30
2022-09-22T12:44:46.536Z,15.59
2022-09-22T12:47:25.627Z,15.80
2022-09-22T12:49:56.962Z,15.26
2022-09-22T12:52:41.901Z,15.35
2022-09-22T12:55:33.935Z,15.61
2022-09-22T12:58:01.736Z,15.67
2022-09-22T13:00:36.842Z,15.70
2022-09-22T13:03:24.926Z,15.41
2022-09-22T13:05:55.208Z,15.29
2022-09-22T13:08:41.975Z,15.27
2022-09-22T13:11:09.737Z,15.34
2022-09-22T13:13:47.810Z,15.45
2022-09-22T13:16:14.466Z,15.81
2022-09-22T13:18:51.869Z,15.40
2022-09-22T13:21:23.240Z,15.51
2022-09-22T13:23:57.414Z,15.77
2022-09-22T13:26:32.085Z,15.85
2022-09-22T13:29:02.536Z,15.92
2022-09-22T13:31:39.213Z,15.55
2022-09-22T13:34:17.760Z,15.60
2022-09-22T13:36:47.984Z,15.85
2022-09-22T13:39:22.115Z,16.33
2022-09-22T13:41:55.046Z,16.25
2022-09-22T13:44:27.343Z,15.56
2022-09-22T13:46:54.655Z,15.33
2022-09-22T13:49:36.225Z,15.61
2022-09-22T13:52:07.121Z,15.96
2022-09-22T13:54:36.946Z,15.93
2022-09-22T13:57:07.354Z,16.03
2022-09-22T13:59:40.136Z,15.98
2022-09-22T14:02:12.602Z,15.87
2022-09-22T14:04:49.356Z,16.07
2022-09-22T14:07:17.161Z,15.66
2022-09-22T14:09:44.968Z,16.05
2022-09-22T14:12:11.911Z,16.69
2022-09-22T14:14:38.630Z,16.56
2022-09-22T14:17:23.774Z,16.66
2022-09-22T14:20:03.549Z,16.72
2022-09-22T14:22:40.576Z,16.03
2022-09-22T14:25:15.631Z,15.55
2022-09-22T14:28:00.658Z,16.01
2022-09-22T14:30:29.076Z,16.15
2022-09-22T14:33:01.889Z,15.65
2022-09-22T14:35:35.690Z,15.45
2022-09-22T14:38:14.282Z,15.96
2022-09-22T14:40:57.234Z,16.92
2022-09-22T14:43:32.803Z,17.02
2022-09-22T14:46:06.071Z,16.96
2022-09-22T14:48:36.194Z,16.78
2022-09-22T14:51:16.135Z,16.88
2022-09-22T14:53:47.125Z,16.91
2022-09-22T14:56:17.649Z,17.02
2022-09-22T14:58:51.190Z,16.98
2022-09-22T15:01:32.401Z,17.15
2022-09-22T15:04:06.705Z,16.37
2022-09-22T15:06:38.192Z,16.92
2022-09-22T15:09:06.827Z,17.61
2022-09-22T15:12:06.350Z,17.67
2022-09-22T15:14:35.644Z,17.19
2022-09-22T15:17:04.452Z,17.64
2022-09-22T15:19:31.070Z,17.44
2022-09-22T15:21:57.650Z,16.84
2022-09-22T15:24:24.368Z,16.63
2022-09-22T15:26:51.059Z,16.59
2022-09-22T15:29:17.620Z,16.45
2022-09-22T15:31:44.279Z,15.96
2022-09-22T15:34:10.975Z,15.37
2022-09-22T15:36:44.914Z,15.40
2022-09-22T15:39:22.999Z,15.28
2022-09-22T15:41:51.524Z,15.29
2022-09-22T15:44:18.146Z,15.40
2022-09-22T15:46:48.849Z,15.42
2022-09-22T15:49:19.775Z,15.14
2022-09-22T15:51:47.019Z,15.38
2022-09-22T15:54:16.191Z,15.32
2022-09-22T15:56:44.162Z,15.73
2022-09-22T15:59:22.327Z,15.80
2022-09-22T16:01:50.196Z,14.89
2022-09-22T16:04:16.773Z,14.60
2022-09-22T16:06:50.428Z,14.51
2022-09-22T16:09:17.396Z,14.78
2022-09-22T16:11:44.386Z,14.74
2022-09-22T16:14:11.095Z,14.68
2022-09-22T16:16:38.201Z,14.87
2022-09-22T16:19:05.349Z,14.73
2022-09-22T16:21:34.333Z,14.10
2022-09-22T16:24:04.134Z,14.20
2022-09-22T16:26:31.204Z,13.65
2022-09-22T16:28:58.286Z,13.79
2022-09-22T16:31:25.314Z,14.02
2022-09-22T16:33:52.693Z,14.58
2022-09-22T16:36:19.472Z,13.49
2022-09-22T16:38:46.132Z,13.48
2022-09-22T16:41:22.509Z,13.61
2022-09-22T16:43:49.247Z,13.56
2022-09-22T16:46:16.848Z,13.82
2022-09-22T16:48:43.666Z,13.96
2022-09-22T16:51:11.933Z,13.93
2022-09-22T16:53:38.518Z,13.80
2022-09-22T16:56:05.666Z,13.96
2022-09-22T16:58:32.395Z,13.98
2022-09-22T17:01:05.609Z,13.99
2022-09-22T17:03:32.219Z,13.96
2022-09-22T17:06:06.735Z,13.91
2022-09-22T17:08:34.844Z,13.89
2022-09-22T17:11:07.580Z,13.74
2022-09-22T17:13:34.187Z,13.48
2022-09-22T17:16:04.982Z,13.49
2022-09-22T17:18:31.607Z,13.33
2022-09-22T17:20:58.184Z,13.08
2022-09-22T17:23:24.763Z,13.05
2022-09-22T17:25:51.354Z,13.02
2022-09-22T17:28:18.004Z,12.98
2022-09-22T17:30:54.777Z,12.66
2022-09-22T17:33:21.409Z,12.61
2022-09-22T17:35:47.962Z,12.41
2022-09-22T17:38:14.568Z,12.50
2022-09-22T17:40:41.917Z,12.50
2022-09-22T17:43:08.568Z,12.41
2022-09-22T17:45:35.144Z,12.44
2022-09-22T17:48:01.946Z,12.52
2022-09-22T17:50:28.525Z,12.56
2022-09-22T17:52:55.182Z,12.52
2022-09-22T17:55:22.944Z,12.53
2022-09-22T17:57:49.520Z,12.36
2022-09-22T18:00:20.192Z,12.62
2022-09-22T18:02:48.244Z,12.41
2022-09-22T18:05:19.090Z,12.26
2022-09-22T18:07:45.712Z,12.40
2022-09-22T18:10:16.611Z,12.34
2022-09-22T18:12:43.470Z,11.58
2022-09-22T18:15:11.514Z,11.75
2022-09-22T18:17:40.286Z,11.89
2022-09-22T18:20:11.948Z,11.88
2022-09-22T18:22:39.113Z,11.87
2022-09-22T18:25:06.357Z,11.92
2022-09-22T18:27:32.936Z,11.98
2022-09-22T18:29:59.503Z,11.93
2022-09-22T18:32:27.450Z,11.86
2022-09-22T18:34:54.950Z,11.83
2022-09-22T18:37:23.152Z,11.78
2022-09-22T18:39:49.772Z,11.71
2022-09-22T18:42:18.211Z,11.76
2022-09-22T18:44:46.926Z,11.75
2022-09-22T18:47:15.574Z,11.65
2022-09-22T18:49:42.352Z,11.33
2022-09-22T18:52:08.968Z,11.39
2022-09-22T18:54:35.559Z,11.26
2022-09-22T18:57:02.183Z,11.02
2022-09-22T18:59:28.870Z,10.93
2022-09-22T19:01:58.600Z,10.90
2022-09-22T19:04:25.694Z,10.82
2022-09-22T19:06:55.003Z,10.67
2022-09-22T19:09:22.154Z,10.42
2022-09-22T19:11:48.797Z,10.22
2022-09-22T19:14:15.442Z,10.42
2022-09-22T19:16:42.019Z,10.65
2022-09-22T19:19:08.621Z,10.26
2022-09-22T19:21:36.146Z,10.20
2022-09-22T19:24:02.732Z,10.26
2022-09-22T19:26:29.300Z,10.25
2022-09-22T19:28:55.915Z,10.22
2022-09-22T19:31:22.526Z,10.48
2022-09-22T19:33:49.231Z,10.51
2022-09-22T19:36:15.912Z,10.51
2022-09-22T19:38:42.475Z,10.23
2022-09-22T19:41:09.039Z,10.41
2022-09-22T19:43:35.615Z,10.48
2022-09-22T19:46:02.241Z,10.48
2022-09-22T19:48:28.842Z,10.39
2022-09-22T19:50:55.556Z,10.31
2022-09-22T19:53:22.304Z,10.17
2022-09-22T19:55:48.868Z,10.01
2022-09-22T19:58:15.540Z,9.89
2022-09-22T20:00:42.168Z,9.92
2022-09-22T20:03:08.774Z,9.93
2022-09-22T20:05:37.621Z,9.79
2022-09-22T20:08:05.298Z,9.82
2022-09-22T20:10:32.749Z,9.79
2022-09-22T20:12:59.595Z,9.78
2022-09-22T20:15:27.242Z,9.95
2022-09-22T20:17:53.858Z,9.22
2022-09-22T20:20:23.119Z,9.35
2022-09-22T20:22:56.712Z,9.42
2022-09-22T20:25:26.550Z,9.56
2022-09-22T20:27:53.126Z,9.61
2022-09-22T20:30:19.716Z,9.73
2022-09-22T20:32:46.289Z,9.34
2022-09-22T20:35:14.818Z,9.61
2022-09-22T20:37:41.533Z,9.68
2022-09-22T20:40:19.533Z,9.69
2022-09-22T20:42:49.570Z,9.62
2022-09-22T20:45:16.819Z,9.73
2022-09-22T20:47:43.414Z,9.78
2022-09-22T20:50:10.859Z,9.80
2022-09-22T20:52:39.576Z,9.68
2022-09-22T20:55:06.482Z,9.59
2022-09-22T20:57:33.160Z,9.73
2022-09-22T21:00:00.327Z,9.60
2022-09-22T21:02:27.247Z,9.54
2022-09-22T21:04:53.837Z,9.42
2022-09-22T21:07:20.769Z,9.39
2022-09-22T21:09:47.385Z,9.57
2022-09-22T21:12:13.981Z,9.57
2022-09-22T21:14:40.603Z,9.36
2022-09-22T21:17:07.173Z,9.31
2022-09-22T21:19:34.036Z,9.31
2022-09-22T21:22:00.859Z,9.23
2022-09-22T21:24:27.620Z,9.10
2022-09-22T21:26:54.420Z,8.98
2022-09-22T21:29:21.400Z,8.93
2022-09-22T21:31:48.135Z,9.44
2022-09-22T21:34:14.868Z,9.46
2022-09-22T21:36:41.448Z,9.24
2022-09-22T21:39:08.125Z,9.10
2022-09-22T21:41:35.396Z,9.13
2022-09-22T21:44:02.262Z,9.11
2022-09-22T21:46:30.120Z,9.08
2022-09-22T21:48:57.548Z,8.95
2022-09-22T21:51:24.137Z,8.72
2022-09-22T21:53:52.928Z,8.93
2022-09-22T21:56:21.037Z,8.80
2022-09-22T21:58:50.210Z,8.99
2022-09-22T22:01:19.692Z,8.87
2022-09-22T22:03:47.629Z,8.85
2022-09-22T22:06:19.445Z,8.98
2022-09-22T22:08:57.324Z,8.90
2022-09-22T22:11:25.739Z,8.92
2022-09-22T22:13:54.127Z,8.96
2022-09-22T22:16:23.398Z,8.69
2022-09-22T22:18:50.566Z,8.74
2022-09-22T22:21:20.337Z,8.54
2022-09-22T22:23:49.604Z,8.77
2022-09-22T22:26:19.530Z,8.69
2022-09-22T22:28:47.217Z,8.54
2022-09-22T22:31:24.525Z,8.52
2022-09-22T22:33:51.107Z,8.66
2022-09-22T22:36:18.956Z,8.73
2022-09-22T22:38:45.846Z,8.61
2022-09-22T22:41:14.947Z,8.88
2022-09-22T22:43:42.411Z,8.71
2022-09-22T22:46:11.979Z,8.59
2022-09-22T22:48:38.738Z,8.39
2022-09-22T22:51:11.008Z,8.35
2022-09-22T22:53:38.026Z,8.52
2022-09-22T22:56:07.328Z,8.38
2022-09-22T22:58:36.220Z,8.50
2022-09-22T23:01:14.055Z,8.34
2022-09-22T23:03:43.598Z,8.29
2022-09-22T23:06:15.624Z,8.34
2022-09-22T23:08:43.270Z,8.20
2022-09-22T23:11:15.928Z,8.10
2022-09-22T23:13:47.847Z,8.29
2022-09-22T23:16:14.497Z,8.07
2022-09-22T23:18:42.021Z,8.02
2022-09-22T23:21:11.305Z,8.19
2022-09-22T23:23:39.307Z,8.17
2022-09-22T23:26:09.383Z,8.33
2022-09-22T23:28:37.338Z,8.41
2022-09-22T23:31:06.621Z,8.27
2022-09-22T23:33:33.298Z,8.23
2022-09-22T23:36:01.270Z,8.08
2022-09-22T23:38:31.390Z,7.98
2022-09-22T23:40:59.255Z,8.03
2022-09-22T23:43:27.719Z,7.80
2022-09-22T23:45:55.068Z,7.80
2022-09-22T23:48:24.432Z,7.76
2022-09-22T23:50:53.272Z,7.75
2022-09-22T23:53:22.007Z,7.67
2022-09-22T23:55:49.617Z,7.68
2022-09-22T23:58:16.734Z,7.75
